Zim Luanda — 9HA2029 — position and weather

sailwx.info

Track history (hours):
 
Tides and Currents Weather Stations Pressure Air Temp Water Temp Dewpoint Dewpoint Depression Visibility Wind Speed Wind Dir Waves Ship Positions

Zim Luanda

Last reported at 2014-Jul-21 18:31 UTC. Time now 2014-Jul-22 13:27 UTC.
Position N 38°07' W 073°58'.

Length 260 m; draft 10.9 m.

Type: Ship (hazmat cat A). MMSI: 249830000.

Date/timePositionNaut miles runAvg speedWind from/ knotsBaromVisibWave heightAir tempDewpointWater temp
2014-Jul-21 18:31N 38°07' W 073°58'1617.0
2014-Jul-21 17:33N 38°23' W 073°55'1716.5
2014-Jul-21 16:33N 38°40' W 073°52'1616.2
2014-Jul-21 15:33N 38°56' W 073°52'1716.5
2014-Jul-21 14:33N 39°12' W 073°52'1716.4
2014-Jul-21 13:33N 39°29' W 073°52'1616.2
2014-Jul-21 12:33N 39°45' W 073°52'1616.3
2014-Jul-21 11:33N 40°01' W 073°51'2914.3
2014-Jul-21 09:32N 40°30' W 073°56'1212.1
2014-Jul-21 08:34N 40°39' W 074°06'3 3.3
2014-Jul-21 07:33N 40°41' W 074°09'0 0.0
2014-Jul-21 06:31N 40°41' W 074°09'0 0.0
2014-Jul-21 05:31N 40°41' W 074°09'0 0.0
2014-Jul-21 04:31N 40°41' W 074°09'0 0.0
2014-Jul-21 03:25N 40°41' W 074°09'0 0.0
2014-Jul-21 02:31N 40°41' W 074°09'0 0.0
2014-Jul-21 01:25N 40°41' W 074°09'0 0.0
2014-Jul-20 23:16N 40°41' W 074°09'0 0.0
2014-Jul-20 20:07N 40°41' W 074°09'0 0.0
2014-Jul-20 18:31N 40°41' W 074°09'0 0.0
2014-Jul-20 17:31N 40°41' W 074°09'0 0.0
2014-Jul-20 16:31N 40°41' W 074°09'0 0.0
2014-Jul-20 15:31N 40°41' W 074°09'0 0.0
2014-Jul-20 14:33N 40°41' W 074°09'4 4.4
2014-Jul-20 13:33N 40°39' W 074°04'1010.2
2014-Jul-20 12:33N 40°30' W 073°57'2912.2
2014-Jul-20 10:10N 40°29' W 073°18'1016.1
2014-Jul-20 09:32N 40°30' W 073°05'1616.1
2014-Jul-20 08:33N 40°30' W 072°44'1616.0
2014-Jul-20 07:33N 40°31' W 072°23'2015.9
2014-Jul-20 06:17N 40°31' W 071°57'  
2014-Jul-13 00:15N 38°08' W 015°21'1816.6
2014-Jul-12 23:11N 38°01' W 015°00'1116.7
2014-Jul-12 22:33N 37°57' W 014°48'1816.8
2014-Jul-12 21:28N 37°50' W 014°27'3316.8
2014-Jul-12 19:30N 37°37' W 013°48'1616.5
2014-Jul-12 18:30N 37°30' W 013°29'1616.6
2014-Jul-12 17:33N 37°24' W 013°11'1716.7
2014-Jul-12 16:33N 37°17' W 012°52'1716.5
2014-Jul-12 15:33N 37°10' W 012°33'1716.5
2014-Jul-12 14:30N 37°03' W 012°13'1616.7
2014-Jul-12 13:31N 36°57' W 011°54'3416.6
2014-Jul-12 11:26N 36°46' W 011°13'3116.5
2014-Jul-12 09:32N 36°36' W 010°36'2116.5
2014-Jul-12 08:17N 36°29' W 010°12'1216.5
2014-Jul-12 07:33N 36°25' W 009°58'1716.4
2014-Jul-12 06:33N 36°19' W 009°38'1616.5
2014-Jul-12 05:33N 36°14' W 009°19'1716.6
2014-Jul-12 04:34N 36°08' W 009°00'1616.2
2014-Jul-12 03:33N 36°02' W 008°42'1716.1
2014-Jul-12 02:32N 35°60' W 008°21'1616.4
2014-Jul-12 01:33N 35°59' W 008°02'1616.3
2014-Jul-12 00:33N 35°59' W 007°41'1716.6
2014-Jul-11 23:33N 35°59' W 007°21'1717.0
2014-Jul-11 22:33N 35°58' W 006°60'1716.9
2014-Jul-11 21:33N 35°58' W 006°39'1716.7
2014-Jul-11 20:33N 35°57' W 006°18'1716.8
2014-Jul-11 19:33N 35°57' W 005°58'1515.2
2014-Jul-11 18:33N 35°57' W 005°39'  
Track history (hours):
 
Tides and Currents Weather Stations Pressure Air Temp Water Temp Dewpoint Dewpoint Depression Visibility Wind Speed Wind Dir Waves Ship Positions

Zim Luanda

Last reported at 2014-Jul-21 18:31 UTC. Time now 2014-Jul-22 13:27 UTC.
Position N 38°07' W 073°58'.

Length 260 m; draft 10.9 m.

Type: Ship (hazmat cat A). MMSI: 249830000.

Date/timePositionNaut miles runAvg speedWind from/ knotsBaromVisibWave heightAir tempDewpointWater temp
2014-Jul-21 18:31N 38°07' W 073°58'1617.0
2014-Jul-21 17:33N 38°23' W 073°55'1716.5
2014-Jul-21 16:33N 38°40' W 073°52'1616.2
2014-Jul-21 15:33N 38°56' W 073°52'1716.5
2014-Jul-21 14:33N 39°12' W 073°52'1716.4
2014-Jul-21 13:33N 39°29' W 073°52'1616.2
2014-Jul-21 12:33N 39°45' W 073°52'1616.3
2014-Jul-21 11:33N 40°01' W 073°51'2914.3
2014-Jul-21 09:32N 40°30' W 073°56'1212.1
2014-Jul-21 08:34N 40°39' W 074°06'3 3.3
2014-Jul-21 07:33N 40°41' W 074°09'0 0.0
2014-Jul-21 06:31N 40°41' W 074°09'0 0.0
2014-Jul-21 05:31N 40°41' W 074°09'0 0.0
2014-Jul-21 04:31N 40°41' W 074°09'0 0.0
2014-Jul-21 03:25N 40°41' W 074°09'0 0.0
2014-Jul-21 02:31N 40°41' W 074°09'0 0.0
2014-Jul-21 01:25N 40°41' W 074°09'0 0.0
2014-Jul-20 23:16N 40°41' W 074°09'0 0.0
2014-Jul-20 20:07N 40°41' W 074°09'0 0.0
2014-Jul-20 18:31N 40°41' W 074°09'0 0.0
2014-Jul-20 17:31N 40°41' W 074°09'0 0.0
2014-Jul-20 16:31N 40°41' W 074°09'0 0.0
2014-Jul-20 15:31N 40°41' W 074°09'0 0.0
2014-Jul-20 14:33N 40°41' W 074°09'4 4.4
2014-Jul-20 13:33N 40°39' W 074°04'1010.2
2014-Jul-20 12:33N 40°30' W 073°57'2912.2
2014-Jul-20 10:10N 40°29' W 073°18'1016.1
2014-Jul-20 09:32N 40°30' W 073°05'1616.1
2014-Jul-20 08:33N 40°30' W 072°44'1616.0
2014-Jul-20 07:33N 40°31' W 072°23'2015.9
2014-Jul-20 06:17N 40°31' W 071°57'  
2014-Jul-13 00:15N 38°08' W 015°21'1816.6
2014-Jul-12 23:11N 38°01' W 015°00'1116.7
2014-Jul-12 22:33N 37°57' W 014°48'1816.8
2014-Jul-12 21:28N 37°50' W 014°27'3316.8
2014-Jul-12 19:30N 37°37' W 013°48'1616.5
2014-Jul-12 18:30N 37°30' W 013°29'1616.6
2014-Jul-12 17:33N 37°24' W 013°11'1716.7
2014-Jul-12 16:33N 37°17' W 012°52'1716.5
2014-Jul-12 15:33N 37°10' W 012°33'1716.5
2014-Jul-12 14:30N 37°03' W 012°13'1616.7
2014-Jul-12 13:31N 36°57' W 011°54'3416.6
2014-Jul-12 11:26N 36°46' W 011°13'3116.5
2014-Jul-12 09:32N 36°36' W 010°36'2116.5
2014-Jul-12 08:17N 36°29' W 010°12'1216.5
2014-Jul-12 07:33N 36°25' W 009°58'1716.4
2014-Jul-12 06:33N 36°19' W 009°38'1616.5
2014-Jul-12 05:33N 36°14' W 009°19'1716.6
2014-Jul-12 04:34N 36°08' W 009°00'1616.2
2014-Jul-12 03:33N 36°02' W 008°42'1716.1
2014-Jul-12 02:32N 35°60' W 008°21'1616.4
2014-Jul-12 01:33N 35°59' W 008°02'1616.3
2014-Jul-12 00:33N 35°59' W 007°41'1716.6
2014-Jul-11 23:33N 35°59' W 007°21'1717.0
2014-Jul-11 22:33N 35°58' W 006°60'1716.9
2014-Jul-11 21:33N 35°58' W 006°39'1716.7
2014-Jul-11 20:33N 35°57' W 006°18'1716.8
2014-Jul-11 19:33N 35°57' W 005°58'1515.2
2014-Jul-11 18:33N 35°57' W 005°39'  

Dump ship's entire track history